Time;durP1;ratioP1;P1;durP2;ratioP2;P2;SDS_P1;SDS_P2;PMS_P1;PMS_P2;Temp;Humidity;BMP_temperature;BMP_pressure;BME280_temperature;BME280_humidity;BME280_pressure;Samples;Min_cycle;Max_cycle;Signal;HPM_P1;HPM_P2
2022/03/31 00:00:38;;;;;;;62.70;10.88;;;;;;;;;;5022800;28;20125;-49
2022/03/31 00:03:07;;;;;;;70.22;11.35;;;;;;;;;;5028796;28;20099;-46
2022/03/31 00:05:34;;;;;;;83.63;13.10;;;;;;;;;;5034532;28;20056;-46
2022/03/31 00:08:03;;;;;;;77.28;13.15;;;;;;;;;;5035093;28;20068;-49
2022/03/31 00:10:31;;;;;;;64.32;12.05;;;;;;;;;;5029316;28;20107;-48
2022/03/31 00:12:58;;;;;;;77.53;12.88;;;;;;;;;;5027523;28;20045;-46
2022/03/31 00:15:27;;;;;;;70.43;13.70;;;;;;;;;;5032600;28;20083;-47
2022/03/31 00:17:54;;;;;;;72.75;11.95;;;;;;;;;;5018461;28;20040;-45
2022/03/31 00:20:21;;;;;;;60.10;12.52;;;;;;;;;;5036296;28;20032;-48
2022/03/31 00:22:48;;;;;;;78.93;12.48;;;;;;;;;;5032265;28;20041;-47
2022/03/31 00:25:15;;;;;;;62.53;12.05;;;;;;;;;;5024761;28;20033;-46
2022/03/31 00:27:42;;;;;;;61.83;11.90;;;;;;;;;;5029220;28;20101;-50
2022/03/31 00:30:12;;;;;;;65.35;11.43;;;;;;;;;;5035874;28;20080;-45
2022/03/31 00:32:39;;;;;;;64.15;11.63;;;;;;;;;;5032007;28;20095;-47
2022/03/31 00:35:08;;;;;;;71.13;12.27;;;;;;;;;;5028188;28;20117;-48
2022/03/31 00:37:34;;;;;;;68.47;11.68;;;;;;;;;;5023316;28;20033;-45
2022/03/31 00:40:01;;;;;;;83.65;13.05;;;;;;;;;;5028915;28;20065;-45
2022/03/31 00:42:28;;;;;;;65.88;12.27;;;;;;;;;;5037889;28;20041;-49
2022/03/31 00:44:55;;;;;;;73.07;12.38;;;;;;;;;;5021139;28;20030;-46
2022/03/31 00:47:23;;;;;;;65.65;12.70;;;;;;;;;;5027419;28;20030;-48
2022/03/31 00:49:50;;;;;;;70.97;12.73;;;;;;;;;;5026103;28;20369;-45
2022/03/31 00:52:17;;;;;;;61.13;12.20;;;;;;;;;;5037077;28;20060;-45
2022/03/31 00:54:44;;;;;;;57.75;11.77;;;;;;;;;;5012325;28;20493;-44
2022/03/31 00:57:12;;;;;;;57.42;11.60;;;;;;;;;;5014493;28;20034;-44
2022/03/31 00:59:40;;;;;;;59.65;11.88;;;;;;;;;;5012224;28;20413;-44
2022/03/31 01:02:08;;;;;;;60.58;11.80;;;;;;;;;;5011829;28;20025;-45
2022/03/31 01:04:35;;;;;;;63.70;12.55;;;;;;;;;;5012074;28;20056;-47
2022/03/31 01:07:03;;;;;;;69.55;12.60;;;;;;;;;;5012308;28;20571;-46
2022/03/31 01:09:32;;;;;;;69.68;12.57;;;;;;;;;;5011248;28;20137;-47
2022/03/31 01:12:01;;;;;;;63.80;11.93;;;;;;;;;;5012083;28;20030;-47
2022/03/31 01:14:30;;;;;;;64.75;11.82;;;;;;;;;;5011981;28;20172;-43
2022/03/31 01:16:57;;;;;;;63.20;12.25;;;;;;;;;;5011342;28;20038;-45
2022/03/31 01:19:24;;;;;;;64.70;11.77;;;;;;;;;;5011822;28;20037;-44
2022/03/31 01:21:51;;;;;;;64.18;11.32;;;;;;;;;;4994236;28;20041;-44
2022/03/31 01:24:18;;;;;;;59.25;11.90;;;;;;;;;;5027476;28;20025;-45
2022/03/31 01:26:46;;;;;;;64.32;12.18;;;;;;;;;;5030504;28;20507;-44
2022/03/31 01:29:13;;;;;;;51.42;10.20;;;;;;;;;;5035807;28;20040;-46
2022/03/31 01:31:40;;;;;;;57.50;11.90;;;;;;;;;;5046702;28;20064;-45
2022/03/31 01:34:10;;;;;;;46.72;10.18;;;;;;;;;;5027814;28;20033;-45
2022/03/31 01:36:37;;;;;;;67.55;12.00;;;;;;;;;;5044775;28;20029;-45
2022/03/31 01:39:05;;;;;;;58.08;11.23;;;;;;;;;;5004534;28;20120;-45
2022/03/31 01:41:32;;;;;;;56.85;11.45;;;;;;;;;;5034516;28;20021;-45
2022/03/31 01:43:59;;;;;;;59.70;11.27;;;;;;;;;;5033696;28;20123;-45
2022/03/31 01:46:27;;;;;;;55.88;10.52;;;;;;;;;;5022183;28;20470;-46
2022/03/31 01:48:54;;;;;;;45.65;9.85;;;;;;;;;;5016430;28;20022;-44
2022/03/31 01:51:21;;;;;;;49.63;10.38;;;;;;;;;;5020076;28;20033;-44
2022/03/31 01:53:48;;;;;;;59.15;11.63;;;;;;;;;;5034186;28;20080;-46
2022/03/31 01:56:15;;;;;;;50.85;11.13;;;;;;;;;;5026476;28;20035;-44
2022/03/31 01:58:42;;;;;;;51.33;9.98;;;;;;;;;;5026318;28;20029;-46
2022/03/31 02:01:09;;;;;;;59.30;11.23;;;;;;;;;;5033548;28;20423;-45
2022/03/31 02:03:37;;;;;;;53.55;10.68;;;;;;;;;;5001628;28;20087;-45
2022/03/31 02:06:04;;;;;;;49.78;10.43;;;;;;;;;;5041761;28;20037;-46
2022/03/31 02:08:31;;;;;;;47.33;9.52;;;;;;;;;;5016489;28;20099;-44
2022/03/31 02:11:02;;;;;;;47.17;9.25;;;;;;;;;;5032966;28;20036;-46
2022/03/31 02:13:29;;;;;;;42.42;9.32;;;;;;;;;;5002296;28;20037;-46
2022/03/31 02:15:56;;;;;;;40.45;10.15;;;;;;;;;;5033274;28;20028;-45
2022/03/31 02:18:23;;;;;;;46.22;9.05;;;;;;;;;;5034322;28;20546;-47
2022/03/31 02:20:51;;;;;;;44.67;9.65;;;;;;;;;;5019058;28;20029;-46
2022/03/31 02:23:18;;;;;;;38.42;9.55;;;;;;;;;;5034338;28;20045;-45
2022/03/31 02:25:45;;;;;;;39.47;9.15;;;;;;;;;;5031143;28;20048;-45
2022/03/31 02:28:12;;;;;;;50.40;9.70;;;;;;;;;;5029875;28;20032;-45
2022/03/31 02:30:39;;;;;;;50.53;9.50;;;;;;;;;;5023238;28;20037;-48
2022/03/31 02:33:06;;;;;;;49.10;10.23;;;;;;;;;;5033752;28;20505;-45
2022/03/31 02:35:33;;;;;;;47.80;10.95;;;;;;;;;;5051580;28;20021;-47
2022/03/31 02:38:00;;;;;;;43.67;8.88;;;;;;;;;;5051830;28;20025;-46
2022/03/31 02:40:28;;;;;;;50.78;9.48;;;;;;;;;;5051868;28;20089;-46
2022/03/31 02:42:55;;;;;;;42.00;9.77;;;;;;;;;;5051696;28;20029;-46
2022/03/31 02:45:22;;;;;;;38.28;9.23;;;;;;;;;;5051720;28;20449;-45
2022/03/31 02:47:49;;;;;;;44.38;9.15;;;;;;;;;;5033970;28;20035;-46
2022/03/31 02:50:17;;;;;;;39.70;8.43;;;;;;;;;;5051750;28;20025;-48
2022/03/31 02:55:30;;;;;;;41.90;8.98;;;;;;;;;;5051818;28;20044;-49
2022/03/31 02:58:00;;;;;;;37.03;8.75;;;;;;;;;;5051711;28;20045;-45
2022/03/31 03:00:27;;;;;;;36.42;8.60;;;;;;;;;;5051515;28;20033;-45
2022/03/31 03:02:54;;;;;;;39.58;8.48;;;;;;;;;;5051574;28;20029;-46
2022/03/31 03:05:21;;;;;;;35.42;8.30;;;;;;;;;;5051595;28;20037;-46
2022/03/31 03:07:48;;;;;;;28.52;7.85;;;;;;;;;;5051396;28;20064;-47
2022/03/31 03:10:15;;;;;;;40.00;8.50;;;;;;;;;;5051549;28;20025;-47
2022/03/31 03:12:42;;;;;;;29.80;8.02;;;;;;;;;;5055218;28;20108;-44
2022/03/31 03:15:10;;;;;;;32.85;8.13;;;;;;;;;;5037349;28;20513;-48
2022/03/31 03:17:47;;;;;;;30.70;8.68;;;;;;;;;;5055171;28;20055;-45
2022/03/31 03:20:15;;;;;;;30.85;7.90;;;;;;;;;;5055197;28;20040;-46
2022/03/31 03:22:46;;;;;;;39.05;9.05;;;;;;;;;;5055145;28;20099;-46
2022/03/31 03:25:15;;;;;;;28.92;7.22;;;;;;;;;;5037108;28;20040;-45
2022/03/31 03:27:43;;;;;;;36.33;7.70;;;;;;;;;;5054945;28;20059;-46
2022/03/31 03:30:10;;;;;;;28.50;8.05;;;;;;;;;;5055080;28;20021;-45
2022/03/31 03:32:38;;;;;;;33.20;7.90;;;;;;;;;;5054900;28;20033;-44
2022/03/31 03:35:09;;;;;;;25.73;6.97;;;;;;;;;;5054975;28;20112;-46
2022/03/31 03:37:37;;;;;;;32.13;6.97;;;;;;;;;;5054957;28;20021;-44
2022/03/31 03:40:05;;;;;;;30.17;7.85;;;;;;;;;;5054871;28;20029;-46
2022/03/31 03:42:33;;;;;;;31.70;7.38;;;;;;;;;;5054830;28;20025;-48
2022/03/31 03:45:00;;;;;;;28.83;6.88;;;;;;;;;;5054728;28;20032;-46
2022/03/31 03:47:27;;;;;;;26.63;7.50;;;;;;;;;;5054683;28;20033;-44
2022/03/31 03:49:54;;;;;;;27.50;7.10;;;;;;;;;;5054804;28;20032;-45
2022/03/31 03:52:21;;;;;;;21.52;7.00;;;;;;;;;;5054704;28;20025;-45
2022/03/31 03:54:48;;;;;;;27.42;6.88;;;;;;;;;;5054552;28;20052;-45
2022/03/31 03:57:15;;;;;;;25.17;6.88;;;;;;;;;;5054568;28;20028;-44
2022/03/31 03:59:43;;;;;;;27.98;6.82;;;;;;;;;;5054417;28;20032;-46
2022/03/31 04:02:09;;;;;;;27.15;7.80;;;;;;;;;;5054480;28;20083;-45
2022/03/31 04:04:36;;;;;;;21.23;6.35;;;;;;;;;;5054320;28;20403;-45
2022/03/31 04:07:03;;;;;;;28.30;6.85;;;;;;;;;;5054472;28;20087;-45
2022/03/31 04:09:30;;;;;;;24.33;6.35;;;;;;;;;;5054041;28;20047;-47
2022/03/31 04:11:57;;;;;;;24.13;5.93;;;;;;;;;;5054312;28;20033;-45
2022/03/31 04:14:24;;;;;;;25.92;6.20;;;;;;;;;;5054176;28;20033;-48
2022/03/31 04:16:54;;;;;;;22.15;6.38;;;;;;;;;;5053949;28;20017;-45
2022/03/31 04:19:21;;;;;;;19.67;5.78;;;;;;;;;;5054048;28;20056;-46
2022/03/31 04:21:48;;;;;;;22.90;6.85;;;;;;;;;;5053675;28;20031;-44
2022/03/31 04:24:15;;;;;;;25.60;6.53;;;;;;;;;;5054196;28;20371;-46
2022/03/31 04:26:42;;;;;;;18.10;5.30;;;;;;;;;;5054033;28;20036;-46
2022/03/31 04:29:10;;;;;;;21.25;5.93;;;;;;;;;;5053952;28;20111;-47
2022/03/31 04:31:39;;;;;;;19.70;6.05;;;;;;;;;;5053830;28;20036;-45
2022/03/31 04:34:06;;;;;;;18.77;5.32;;;;;;;;;;5053743;28;20036;-46
2022/03/31 04:36:33;;;;;;;24.50;5.57;;;;;;;;;;5053641;28;20033;-45
2022/03/31 04:39:00;;;;;;;22.00;6.28;;;;;;;;;;5053761;28;20434;-45
2022/03/31 04:41:27;;;;;;;20.02;5.32;;;;;;;;;;5053665;28;20075;-44
2022/03/31 04:43:54;;;;;;;20.10;6.43;;;;;;;;;;5053605;28;20029;-44
2022/03/31 04:46:21;;;;;;;21.52;5.57;;;;;;;;;;5053645;28;20029;-44
2022/03/31 04:48:48;;;;;;;20.58;5.30;;;;;;;;;;5053623;28;20078;-44
2022/03/31 04:51:15;;;;;;;24.33;6.35;;;;;;;;;;5053536;28;20017;-44
2022/03/31 04:53:42;;;;;;;18.48;5.88;;;;;;;;;;5053509;28;20494;-46
2022/03/31 04:56:09;;;;;;;23.40;5.50;;;;;;;;;;5053432;28;20025;-44
2022/03/31 04:58:37;;;;;;;17.02;5.30;;;;;;;;;;5053391;28;20155;-45
2022/03/31 05:01:05;;;;;;;18.10;5.00;;;;;;;;;;5053236;28;20390;-44
2022/03/31 05:03:32;;;;;;;19.05;5.57;;;;;;;;;;5053281;28;20032;-44
2022/03/31 05:05:59;;;;;;;15.02;5.30;;;;;;;;;;5053135;28;20036;-44
2022/03/31 05:08:26;;;;;;;18.75;5.35;;;;;;;;;;5035141;28;20586;-44
2022/03/31 05:10:53;;;;;;;18.08;5.05;;;;;;;;;;5053189;28;20103;-44
2022/03/31 05:13:20;;;;;;;19.83;5.60;;;;;;;;;;5053091;28;20094;-44
2022/03/31 05:15:47;;;;;;;20.02;5.60;;;;;;;;;;5053026;28;20079;-44
2022/03/31 05:18:14;;;;;;;11.70;4.00;;;;;;;;;;5053032;28;20021;-44
2022/03/31 05:20:42;;;;;;;16.15;4.75;;;;;;;;;;5053030;28;20025;-44
2022/03/31 05:23:10;;;;;;;16.73;5.32;;;;;;;;;;5052797;28;20475;-44
2022/03/31 05:25:37;;;;;;;15.10;4.85;;;;;;;;;;5052827;28;20051;-45
2022/03/31 05:28:05;;;;;;;16.88;4.85;;;;;;;;;;5052776;28;20067;-45
2022/03/31 05:30:32;;;;;;;14.27;4.65;;;;;;;;;;5052804;28;20044;-46
2022/03/31 05:32:59;;;;;;;15.90;4.70;;;;;;;;;;5052662;28;20032;-44
2022/03/31 05:35:27;;;;;;;17.17;4.15;;;;;;;;;;5052348;28;20021;-44
2022/03/31 05:37:54;;;;;;;15.75;4.65;;;;;;;;;;5052595;28;20537;-45
2022/03/31 05:40:22;;;;;;;15.25;4.47;;;;;;;;;;5052677;28;20040;-44
2022/03/31 05:42:49;;;;;;;11.73;4.07;;;;;;;;;;5052433;28;20037;-45
2022/03/31 05:45:16;;;;;;;15.57;4.28;;;;;;;;;;5052431;28;20041;-44
2022/03/31 05:47:44;;;;;;;13.73;4.00;;;;;;;;;;5052504;28;20025;-45
2022/03/31 05:50:12;;;;;;;14.95;4.80;;;;;;;;;;5052634;28;20444;-45
2022/03/31 05:52:39;;;;;;;19.05;5.15;;;;;;;;;;5052493;28;20033;-44
2022/03/31 05:55:07;;;;;;;15.60;4.15;;;;;;;;;;5052297;28;20487;-45
2022/03/31 05:57:37;;;;;;;20.70;4.55;;;;;;;;;;5052392;28;20025;-44
2022/03/31 06:00:08;;;;;;;13.48;4.20;;;;;;;;;;5052395;28;20021;-44
2022/03/31 06:02:35;;;;;;;13.73;4.18;;;;;;;;;;5052466;28;20055;-44
2022/03/31 06:05:03;;;;;;;13.15;4.07;;;;;;;;;;5052267;28;20033;-45
2022/03/31 06:07:30;;;;;;;12.43;4.07;;;;;;;;;;5052041;28;20032;-45
2022/03/31 06:09:56;;;;;;;13.90;4.30;;;;;;;;;;5052222;28;20067;-44
2022/03/31 06:12:23;;;;;;;13.95;4.07;;;;;;;;;;5052185;28;20406;-45
2022/03/31 06:14:50;;;;;;;10.75;4.13;;;;;;;;;;5052097;28;20036;-44
2022/03/31 06:17:17;;;;;;;11.32;3.72;;;;;;;;;;5052200;28;20033;-44
2022/03/31 06:19:44;;;;;;;11.73;3.95;;;;;;;;;;5052130;28;20033;-45
2022/03/31 06:22:11;;;;;;;13.30;4.43;;;;;;;;;;5034036;28;20415;-44
2022/03/31 06:24:38;;;;;;;13.20;3.80;;;;;;;;;;5051882;28;20401;-44
2022/03/31 06:27:08;;;;;;;12.60;3.72;;;;;;;;;;5052043;28;20052;-45
2022/03/31 06:29:35;;;;;;;12.80;4.00;;;;;;;;;;5051906;28;20482;-43
2022/03/31 06:32:03;;;;;;;14.10;4.22;;;;;;;;;;5052067;28;20028;-45
2022/03/31 06:34:30;;;;;;;12.13;3.83;;;;;;;;;;5051918;28;20026;-47
2022/03/31 06:36:57;;;;;;;12.57;4.00;;;;;;;;;;5051949;28;20104;-44
2022/03/31 06:39:25;;;;;;;11.90;3.60;;;;;;;;;;5051916;28;20035;-43
2022/03/31 06:41:52;;;;;;;10.32;3.42;;;;;;;;;;5051782;28;20033;-45
2022/03/31 06:44:21;;;;;;;9.15;3.00;;;;;;;;;;5051687;28;20047;-44
2022/03/31 06:46:48;;;;;;;9.10;3.30;;;;;;;;;;5055797;28;20072;-44
2022/03/31 06:49:15;;;;;;;10.27;3.75;;;;;;;;;;5037939;28;20031;-44
2022/03/31 06:51:43;;;;;;;11.00;3.55;;;;;;;;;;5037868;28;20064;-43
2022/03/31 06:54:10;;;;;;;10.90;3.80;;;;;;;;;;5055571;28;20029;-44
2022/03/31 06:56:37;;;;;;;12.10;3.30;;;;;;;;;;5055763;28;20383;-45
2022/03/31 06:59:04;;;;;;;11.00;3.72;;;;;;;;;;5055639;28;20082;-45
2022/03/31 07:01:32;;;;;;;8.30;3.30;;;;;;;;;;5055598;28;20470;-44
2022/03/31 07:03:59;;;;;;;9.30;3.38;;;;;;;;;;5055373;28;20036;-45
2022/03/31 07:06:26;;;;;;;9.27;3.33;;;;;;;;;;5055406;28;20037;-44
2022/03/31 07:08:53;;;;;;;11.75;3.35;;;;;;;;;;5055306;28;20057;-44
2022/03/31 07:11:20;;;;;;;9.05;2.95;;;;;;;;;;5055444;28;20036;-44
2022/03/31 07:13:48;;;;;;;13.13;3.50;;;;;;;;;;5055425;28;20040;-44
2022/03/31 07:16:16;;;;;;;11.23;3.58;;;;;;;;;;5055142;28;20025;-44
2022/03/31 07:18:43;;;;;;;10.68;3.42;;;;;;;;;;5055275;28;20407;-43
2022/03/31 07:21:10;;;;;;;8.27;2.90;;;;;;;;;;5055343;28;20061;-44
2022/03/31 07:23:37;;;;;;;10.18;3.60;;;;;;;;;;5055230;28;20029;-45
2022/03/31 07:26:06;;;;;;;9.07;3.28;;;;;;;;;;5055143;28;20032;-45
2022/03/31 07:28:33;;;;;;;8.25;2.78;;;;;;;;;;5055077;28;20064;-43
2022/03/31 07:31:00;;;;;;;9.52;3.42;;;;;;;;;;5185842;22;20056;-45
2022/03/31 07:33:27;;;;;;;10.63;3.17;;;;;;;;;;5035311;28;20434;-45
2022/03/31 07:35:54;;;;;;;8.27;3.30;;;;;;;;;;5017530;28;20025;-44
2022/03/31 07:38:21;;;;;;;9.00;3.40;;;;;;;;;;5034979;28;20104;-45
2022/03/31 07:40:49;;;;;;;8.73;3.30;;;;;;;;;;5035119;28;20029;-46
2022/03/31 07:43:16;;;;;;;7.70;2.70;;;;;;;;;;5034971;28;20061;-45
2022/03/31 07:45:43;;;;;;;6.30;2.72;;;;;;;;;;5035067;28;20041;-44
2022/03/31 07:48:13;;;;;;;7.25;3.15;;;;;;;;;;5035120;28;20030;-47
2022/03/31 07:50:41;;;;;;;9.25;2.97;;;;;;;;;;5034660;28;20163;-44
2022/03/31 07:53:07;;;;;;;8.95;2.70;;;;;;;;;;5034985;28;20029;-46
2022/03/31 07:55:34;;;;;;;10.27;2.90;;;;;;;;;;5034913;28;20021;-46
2022/03/31 07:58:02;;;;;;;7.13;2.88;;;;;;;;;;5034140;28;20423;-43
2022/03/31 08:00:29;;;;;;;8.77;3.25;;;;;;;;;;5034709;28;20064;-47
2022/03/31 08:02:58;;;;;;;7.65;2.97;;;;;;;;;;5034707;28;20037;-46
2022/03/31 08:05:27;;;;;;;6.32;2.65;;;;;;;;;;5034393;28;20414;-44
2022/03/31 08:07:54;;;;;;;8.15;3.03;;;;;;;;;;5034586;28;20098;-44
2022/03/31 08:10:23;;;;;;;5.55;2.78;;;;;;;;;;5034472;28;20034;-47
2022/03/31 08:12:50;;;;;;;6.28;2.65;;;;;;;;;;5034527;28;20029;-44
2022/03/31 08:15:18;;;;;;;8.30;2.75;;;;;;;;;;5034568;28;20029;-43
2022/03/31 08:17:49;;;;;;;6.47;3.08;;;;;;;;;;5034462;28;20441;-46
2022/03/31 08:20:16;;;;;;;9.13;2.80;;;;;;;;;;5034213;28;20033;-44
2022/03/31 08:22:43;;;;;;;5.80;2.38;;;;;;;;;;5034334;28;20026;-43
2022/03/31 08:25:11;;;;;;;6.25;2.45;;;;;;;;;;5034365;28;20064;-45
2022/03/31 08:27:38;;;;;;;7.70;2.50;;;;;;;;;;5034363;28;20032;-46
2022/03/31 08:30:06;;;;;;;8.38;2.80;;;;;;;;;;5033987;28;20056;-44
2022/03/31 08:32:39;;;;;;;8.75;2.58;;;;;;;;;;5016325;28;20416;-44
2022/03/31 08:35:07;;;;;;;3.80;1.95;;;;;;;;;;5034023;28;20117;-43
2022/03/31 08:37:34;;;;;;;7.57;2.08;;;;;;;;;;5034091;28;20028;-45
2022/03/31 08:40:01;;;;;;;7.25;2.55;;;;;;;;;;5034165;28;20068;-43
2022/03/31 08:42:28;;;;;;;6.25;2.55;;;;;;;;;;5033909;28;20121;-44
2022/03/31 08:44:57;;;;;;;9.85;2.50;;;;;;;;;;5033902;28;20057;-44
2022/03/31 08:47:28;;;;;;;4.25;2.00;;;;;;;;;;5033766;28;20491;-45
2022/03/31 08:49:55;;;;;;;4.22;2.00;;;;;;;;;;5033626;28;20120;-44
2022/03/31 08:52:23;;;;;;;5.85;2.45;;;;;;;;;;5033863;28;20037;-45
2022/03/31 08:54:51;;;;;;;6.03;2.58;;;;;;;;;;5033687;28;20060;-44
2022/03/31 08:57:19;;;;;;;6.20;2.30;;;;;;;;;;5033757;28;20495;-46
2022/03/31 08:59:47;;;;;;;6.53;2.05;;;;;;;;;;5033447;28;20483;-44
2022/03/31 09:02:26;;;;;;;7.05;2.65;;;;;;;;;;5032917;28;20052;-44
2022/03/31 09:05:03;;;;;;;4.63;2.10;;;;;;;;;;5033639;28;20061;-45
2022/03/31 09:07:30;;;;;;;6.47;2.30;;;;;;;;;;5033515;28;20475;-44
2022/03/31 09:09:57;;;;;;;4.63;2.22;;;;;;;;;;5032436;28;20030;-45
2022/03/31 09:12:26;;;;;;;3.72;2.00;;;;;;;;;;5033401;28;20037;-43
2022/03/31 09:14:54;;;;;;;4.03;2.10;;;;;;;;;;5033278;28;20410;-46
2022/03/31 09:17:21;;;;;;;7.22;2.78;;;;;;;;;;5033418;28;20030;-43
2022/03/31 09:19:48;;;;;;;4.30;2.20;;;;;;;;;;5033134;28;20022;-43
2022/03/31 09:22:15;;;;;;;3.60;1.77;;;;;;;;;;5033264;28;20052;-46
2022/03/31 09:24:42;;;;;;;6.57;2.35;;;;;;;;;;5033501;28;20037;-43
2022/03/31 09:27:09;;;;;;;5.93;2.20;;;;;;;;;;5033235;28;20033;-44
2022/03/31 09:29:36;;;;;;;4.32;2.25;;;;;;;;;;5032811;28;20037;-46
2022/03/31 09:32:10;;;;;;;5.70;2.78;;;;;;;;;;5033140;28;20486;-46
2022/03/31 09:34:44;;;;;;;5.15;2.00;;;;;;;;;;5033064;28;20052;-44
2022/03/31 09:37:12;;;;;;;5.20;2.17;;;;;;;;;;5033112;28;20027;-43
2022/03/31 09:39:39;;;;;;;7.65;2.25;;;;;;;;;;5032873;28;20442;-44
2022/03/31 09:42:13;;;;;;;7.03;2.47;;;;;;;;;;5032870;28;20029;-45
2022/03/31 09:44:42;;;;;;;5.65;2.15;;;;;;;;;;5032887;28;20029;-43
2022/03/31 09:47:10;;;;;;;4.30;2.08;;;;;;;;;;5032791;28;20141;-43
2022/03/31 09:49:37;;;;;;;5.70;2.33;;;;;;;;;;5032705;28;20022;-45
2022/03/31 09:52:07;;;;;;;5.50;2.30;;;;;;;;;;5032707;28;20030;-46
2022/03/31 09:54:34;;;;;;;5.40;1.88;;;;;;;;;;5032669;28;20079;-46
2022/03/31 09:57:04;;;;;;;5.40;2.40;;;;;;;;;;5032670;28;20100;-43
2022/03/31 09:59:32;;;;;;;5.15;2.20;;;;;;;;;;5032597;28;20548;-43
2022/03/31 10:01:59;;;;;;;3.53;2.17;;;;;;;;;;5032552;28;20030;-43
2022/03/31 10:04:27;;;;;;;4.70;2.30;;;;;;;;;;5014792;28;20395;-45
2022/03/31 10:06:54;;;;;;;4.65;2.30;;;;;;;;;;5032017;28;20491;-43
2022/03/31 10:09:22;;;;;;;3.50;2.10;;;;;;;;;;5029555;28;20041;-46
2022/03/31 10:12:02;;;;;;;6.13;2.30;;;;;;;;;;5004373;28;20034;-44
2022/03/31 10:14:43;;;;;;;5.30;2.47;;;;;;;;;;5012477;28;20034;-45
2022/03/31 10:17:12;;;;;;;62.70;4.85;;;;;;;;;;5006237;28;20037;-45
2022/03/31 10:19:40;;;;;;;7.50;2.83;;;;;;;;;;5011293;28;20026;-43
2022/03/31 10:25:00;;;;;;;6.68;2.75;;;;;;;;;;4981183;28;20049;-45
2022/03/31 10:27:27;;;;;;;5.30;2.10;;;;;;;;;;5011421;28;20056;-45
2022/03/31 10:29:54;;;;;;;5.05;2.53;;;;;;;;;;5011495;28;20072;-44
2022/03/31 10:32:21;;;;;;;5.53;2.22;;;;;;;;;;4994341;28;20116;-45
2022/03/31 10:34:49;;;;;;;5.63;2.33;;;;;;;;;;5011952;28;20060;-42
2022/03/31 10:37:36;;;;;;;6.60;2.50;;;;;;;;;;5011800;28;20045;-43
2022/03/31 10:40:07;;;;;;;14.05;2.88;;;;;;;;;;5011025;28;20066;-43
2022/03/31 10:42:34;;;;;;;6.22;2.42;;;;;;;;;;5011432;28;20034;-46
2022/03/31 10:45:08;;;;;;;10.50;2.50;;;;;;;;;;5011869;28;20053;-44
2022/03/31 10:47:35;;;;;;;6.63;2.50;;;;;;;;;;5011773;28;20034;-45
2022/03/31 10:50:03;;;;;;;7.55;2.80;;;;;;;;;;5010864;28;20033;-45
2022/03/31 10:52:32;;;;;;;5.28;2.28;;;;;;;;;;5011615;28;20053;-45
2022/03/31 10:55:19;;;;;;;5.10;2.50;;;;;;;;;;5011513;28;20391;-44
2022/03/31 10:57:46;;;;;;;8.52;2.80;;;;;;;;;;5011758;28;20108;-43
2022/03/31 11:00:14;;;;;;;6.25;2.55;;;;;;;;;;5010652;28;20030;-46
2022/03/31 11:02:43;;;;;;;7.55;2.60;;;;;;;;;;5011492;28;20080;-47
2022/03/31 11:05:11;;;;;;;9.85;2.97;;;;;;;;;;5011282;28;20045;-46
2022/03/31 11:07:38;;;;;;;8.52;2.78;;;;;;;;;;5011294;28;20049;-50
2022/03/31 11:10:12;;;;;;;8.10;2.50;;;;;;;;;;5010674;28;20044;-50
2022/03/31 11:12:40;;;;;;;9.35;3.35;;;;;;;;;;5011416;28;20480;-46
2022/03/31 11:15:08;;;;;;;13.90;3.00;;;;;;;;;;5010813;28;20040;-50
2022/03/31 11:17:36;;;;;;;9.60;2.88;;;;;;;;;;5011794;28;20117;-45
2022/03/31 11:20:24;;;;;;;8.68;2.80;;;;;;;;;;5011976;28;20092;-48
2022/03/31 11:22:52;;;;;;;6.82;2.83;;;;;;;;;;5011706;28;20037;-46
2022/03/31 11:25:19;;;;;;;10.90;3.28;;;;;;;;;;5012038;28;20038;-45
2022/03/31 11:27:48;;;;;;;9.15;3.13;;;;;;;;;;5011851;28;20030;-43
2022/03/31 11:30:19;;;;;;;9.25;3.38;;;;;;;;;;5011461;28;20053;-44
2022/03/31 11:32:48;;;;;;;8.63;3.40;;;;;;;;;;5013770;28;20040;-47
2022/03/31 11:35:20;;;;;;;6.90;3.08;;;;;;;;;;5015326;28;20038;-46
2022/03/31 11:37:47;;;;;;;10.75;3.90;;;;;;;;;;5015346;28;20026;-44
2022/03/31 11:40:35;;;;;;;8.35;4.05;;;;;;;;;;5015344;28;20046;-45
2022/03/31 11:43:03;;;;;;;7.63;3.05;;;;;;;;;;5014866;28;20073;-44
2022/03/31 11:45:30;;;;;;;9.95;3.53;;;;;;;;;;5015238;28;20025;-44
2022/03/31 11:47:58;;;;;;;8.88;3.25;;;;;;;;;;5015191;28;20478;-45
2022/03/31 11:50:26;;;;;;;6.13;3.33;;;;;;;;;;5015009;28;20022;-48
2022/03/31 11:52:54;;;;;;;7.57;3.58;;;;;;;;;;5014996;28;20044;-44
2022/03/31 11:55:21;;;;;;;7.63;3.55;;;;;;;;;;5015015;28;20022;-44
2022/03/31 11:57:52;;;;;;;8.70;3.95;;;;;;;;;;4997320;28;20091;-49
2022/03/31 12:00:20;;;;;;;8.85;3.85;;;;;;;;;;5014969;28;20145;-45
2022/03/31 12:03:00;;;;;;;10.05;4.25;;;;;;;;;;5014940;28;20361;-44
2022/03/31 12:05:27;;;;;;;10.13;4.25;;;;;;;;;;5014905;28;20048;-44
2022/03/31 12:07:54;;;;;;;7.95;3.53;;;;;;;;;;5014913;28;20041;-43
2022/03/31 12:10:22;;;;;;;7.03;3.90;;;;;;;;;;5014827;28;20491;-45
2022/03/31 12:12:50;;;;;;;6.28;3.70;;;;;;;;;;5014871;28;20491;-45
2022/03/31 12:15:21;;;;;;;8.00;3.53;;;;;;;;;;5014689;28;20092;-44
2022/03/31 12:18:01;;;;;;;9.13;3.55;;;;;;;;;;5014168;28;20113;-45
2022/03/31 12:20:29;;;;;;;8.68;3.83;;;;;;;;;;5014371;28;20041;-45
2022/03/31 12:22:56;;;;;;;8.50;3.90;;;;;;;;;;5014355;28;20561;-45
2022/03/31 12:25:30;;;;;;;9.02;3.80;;;;;;;;;;5014307;28;20029;-44
2022/03/31 12:28:17;;;;;;;10.25;4.13;;;;;;;;;;5014416;28;20030;-46
2022/03/31 12:30:48;;;;;;;12.88;4.43;;;;;;;;;;5025927;28;20065;-47
2022/03/31 12:33:21;;;;;;;15.82;4.30;;;;;;;;;;5034225;28;20104;-47
2022/03/31 12:36:03;;;;;;;7.28;3.40;;;;;;;;;;5016366;28;20078;-49
2022/03/31 12:38:39;;;;;;;7.35;3.75;;;;;;;;;;5034046;28;20041;-45
2022/03/31 12:41:24;;;;;;;9.32;4.40;;;;;;;;;;5034011;28;20030;-48
2022/03/31 12:44:20;;;;;;;8.38;4.07;;;;;;;;;;5025753;28;20499;-47
2022/03/31 12:46:53;;;;;;;9.20;4.45;;;;;;;;;;5031704;28;20092;-44
2022/03/31 12:49:22;;;;;;;10.35;4.00;;;;;;;;;;5033665;28;20025;-45
2022/03/31 12:51:50;;;;;;;9.10;3.95;;;;;;;;;;5033733;28;20029;-45
2022/03/31 12:54:26;;;;;;;8.55;3.65;;;;;;;;;;5025269;28;20037;-46
2022/03/31 12:56:54;;;;;;;9.10;4.05;;;;;;;;;;5033283;28;20018;-45
2022/03/31 12:59:26;;;;;;;8.23;3.80;;;;;;;;;;5033128;28;20080;-43
2022/03/31 13:01:58;;;;;;;12.27;4.38;;;;;;;;;;5033405;28;20029;-43
2022/03/31 13:04:25;;;;;;;6.82;3.85;;;;;;;;;;5032846;28;20125;-43
2022/03/31 13:06:52;;;;;;;9.60;3.85;;;;;;;;;;5030280;28;20091;-46
2022/03/31 13:09:20;;;;;;;8.70;3.60;;;;;;;;;;5032428;28;20113;-46
2022/03/31 13:11:49;;;;;;;10.18;4.07;;;;;;;;;;5031202;28;20095;-45
2022/03/31 13:14:16;;;;;;;9.52;3.45;;;;;;;;;;5031511;28;20554;-46
2022/03/31 13:16:44;;;;;;;9.68;3.67;;;;;;;;;;5032660;28;20026;-45
2022/03/31 13:19:11;;;;;;;17.95;4.38;;;;;;;;;;5014409;28;20061;-45
2022/03/31 13:21:38;;;;;;;11.70;4.03;;;;;;;;;;5032137;28;20037;-45
2022/03/31 13:24:05;;;;;;;13.00;4.22;;;;;;;;;;5032513;28;20025;-44
2022/03/31 13:26:32;;;;;;;7.43;3.72;;;;;;;;;;5032045;28;20034;-45
2022/03/31 13:29:02;;;;;;;8.45;3.60;;;;;;;;;;5032006;28;20387;-55
2022/03/31 13:31:29;;;;;;;13.30;3.63;;;;;;;;;;5032273;28;20083;-47
2022/03/31 13:33:56;;;;;;;9.85;3.95;;;;;;;;;;5031863;28;20491;-44
2022/03/31 13:36:23;;;;;;;9.60;3.67;;;;;;;;;;5032094;28;20495;-58
2022/03/31 13:38:50;;;;;;;4.93;3.20;;;;;;;;;;5032021;28;20105;-45
2022/03/31 13:41:17;;;;;;;10.18;3.50;;;;;;;;;;5032030;28;20100;-44
2022/03/31 13:43:44;;;;;;;9.30;3.67;;;;;;;;;;5031865;28;20029;-44
2022/03/31 13:46:11;;;;;;;10.73;3.00;;;;;;;;;;5032016;28;20040;-46
2022/03/31 13:48:38;;;;;;;7.25;3.10;;;;;;;;;;5031564;28;20040;-46
2022/03/31 13:51:05;;;;;;;9.20;3.60;;;;;;;;;;5032137;28;20022;-43
2022/03/31 13:53:45;;;;;;;11.10;3.40;;;;;;;;;;5031764;28;20037;-45
2022/03/31 13:56:16;;;;;;;13.40;3.65;;;;;;;;;;5030915;28;20599;-43
2022/03/31 14:01:28;;;;;;;8.82;3.00;;;;;;;;;;5032212;28;20052;-45
2022/03/31 14:03:56;;;;;;;10.13;3.45;;;;;;;;;;5031068;28;20491;-45
2022/03/31 14:06:24;;;;;;;9.00;3.00;;;;;;;;;;5031499;28;20033;-44
2022/03/31 14:08:52;;;;;;;9.93;2.90;;;;;;;;;;5023121;28;20025;-45
2022/03/31 14:11:19;;;;;;;10.85;3.65;;;;;;;;;;5031469;28;20476;-45
2022/03/31 14:13:47;;;;;;;8.18;3.40;;;;;;;;;;5013393;28;20033;-44
2022/03/31 14:16:14;;;;;;;6.35;3.05;;;;;;;;;;5031433;28;20056;-47
2022/03/31 14:18:44;;;;;;;10.95;2.85;;;;;;;;;;5030951;28;20025;-46
2022/03/31 14:21:12;;;;;;;7.32;3.22;;;;;;;;;;5031024;28;20033;-44
2022/03/31 14:23:40;;;;;;;10.63;2.80;;;;;;;;;;5031282;28;20025;-43
2022/03/31 14:26:07;;;;;;;8.07;2.85;;;;;;;;;;5031479;28;20107;-43
2022/03/31 14:28:38;;;;;;;5.90;2.42;;;;;;;;;;5030929;28;20144;-45
2022/03/31 14:31:11;;;;;;;16.98;3.05;;;;;;;;;;5030864;28;20068;-47
2022/03/31 14:33:38;;;;;;;12.68;2.67;;;;;;;;;;5030190;28;20033;-45
2022/03/31 14:36:06;;;;;;;11.07;3.22;;;;;;;;;;5029867;28;20021;-45
2022/03/31 14:38:33;;;;;;;13.05;3.20;;;;;;;;;;5030217;28;20144;-46
2022/03/31 14:41:09;;;;;;;15.38;3.28;;;;;;;;;;5031118;28;20030;-45
2022/03/31 14:43:38;;;;;;;13.75;3.33;;;;;;;;;;5030717;28;20755;-47
2022/03/31 14:46:05;;;;;;;11.45;2.72;;;;;;;;;;5030601;28;20041;-44
2022/03/31 14:48:33;;;;;;;12.48;3.05;;;;;;;;;;5030493;28;20037;-46